sensor_id;sensor_type;location;lat;lon;timestamp;P1;durP1;ratioP1;P2;durP2;ratioP2
64297;SDS011;50639;53.270;7.956;2023-03-31T00:01:38;23.33;;;5.43;;
64297;SDS011;50639;53.270;7.956;2023-03-31T00:04:08;30.98;;;6.18;;
64297;SDS011;50639;53.270;7.956;2023-03-31T00:06:37;24.05;;;5.63;;
64297;SDS011;50639;53.270;7.956;2023-03-31T00:09:15;26.25;;;5.75;;
64297;SDS011;50639;53.270;7.956;2023-03-31T00:11:43;23.48;;;6.07;;
64297;SDS011;50639;53.270;7.956;2023-03-31T00:14:09;25.08;;;5.40;;
64297;SDS011;50639;53.270;7.956;2023-03-31T00:16:37;23.92;;;5.65;;
64297;SDS011;50639;53.270;7.956;2023-03-31T00:19:04;24.55;;;5.65;;
64297;SDS011;50639;53.270;7.956;2023-03-31T00:21:30;30.80;;;6.55;;
64297;SDS011;50639;53.270;7.956;2023-03-31T00:24:04;33.17;;;6.82;;
64297;SDS011;50639;53.270;7.956;2023-03-31T00:26:31;24.17;;;5.57;;
64297;SDS011;50639;53.270;7.956;2023-03-31T00:28:58;23.70;;;5.90;;
64297;SDS011;50639;53.270;7.956;2023-03-31T00:31:24;23.58;;;6.05;;
64297;SDS011;50639;53.270;7.956;2023-03-31T00:33:52;34.35;;;5.95;;
64297;SDS011;50639;53.270;7.956;2023-03-31T00:36:18;22.65;;;4.80;;
64297;SDS011;50639;53.270;7.956;2023-03-31T00:38:51;23.30;;;5.72;;
64297;SDS011;50639;53.270;7.956;2023-03-31T00:41:24;27.33;;;6.50;;
64297;SDS011;50639;53.270;7.956;2023-03-31T00:46:36;24.23;;;5.88;;
64297;SDS011;50639;53.270;7.956;2023-03-31T00:49:07;26.77;;;6.18;;
64297;SDS011;50639;53.270;7.956;2023-03-31T00:51:40;33.00;;;6.68;;
64297;SDS011;50639;53.270;7.956;2023-03-31T00:54:07;31.08;;;6.72;;
64297;SDS011;50639;53.270;7.956;2023-03-31T00:56:35;29.05;;;6.18;;
64297;SDS011;50639;53.270;7.956;2023-03-31T00:59:04;24.55;;;6.15;;
64297;SDS011;50639;53.270;7.956;2023-03-31T01:01:33;26.30;;;6.15;;
64297;SDS011;50639;53.270;7.956;2023-03-31T01:04:00;28.08;;;6.18;;
64297;SDS011;50639;53.270;7.956;2023-03-31T01:06:27;28.45;;;6.22;;
64297;SDS011;50639;53.270;7.956;2023-03-31T01:08:55;27.13;;;6.35;;
64297;SDS011;50639;53.270;7.956;2023-03-31T01:11:21;25.35;;;5.30;;
64297;SDS011;50639;53.270;7.956;2023-03-31T01:13:49;28.98;;;6.45;;
64297;SDS011;50639;53.270;7.956;2023-03-31T01:16:17;26.52;;;6.43;;
64297;SDS011;50639;53.270;7.956;2023-03-31T01:18:43;24.70;;;6.35;;
64297;SDS011;50639;53.270;7.956;2023-03-31T01:24:16;25.02;;;5.78;;
64297;SDS011;50639;53.270;7.956;2023-03-31T01:26:52;26.95;;;5.72;;
64297;SDS011;50639;53.270;7.956;2023-03-31T01:41:03;24.73;;;5.32;;
64297;SDS011;50639;53.270;7.956;2023-03-31T01:43:48;21.90;;;5.78;;
64297;SDS011;50639;53.270;7.956;2023-03-31T01:46:26;22.88;;;5.45;;
64297;SDS011;50639;53.270;7.956;2023-03-31T01:51:48;25.63;;;5.55;;
64297;SDS011;50639;53.270;7.956;2023-03-31T01:57:22;24.25;;;5.60;;
64297;SDS011;50639;53.270;7.956;2023-03-31T02:05:08;24.35;;;5.10;;
64297;SDS011;50639;53.270;7.956;2023-03-31T02:07:38;25.08;;;6.10;;
64297;SDS011;50639;53.270;7.956;2023-03-31T02:10:07;22.35;;;4.95;;
64297;SDS011;50639;53.270;7.956;2023-03-31T02:12:36;22.15;;;4.97;;
64297;SDS011;50639;53.270;7.956;2023-03-31T02:15:07;23.17;;;5.57;;
64297;SDS011;50639;53.270;7.956;2023-03-31T02:17:36;28.08;;;4.97;;
64297;SDS011;50639;53.270;7.956;2023-03-31T02:20:08;26.10;;;5.90;;
64297;SDS011;50639;53.270;7.956;2023-03-31T02:22:37;17.35;;;5.13;;
64297;SDS011;50639;53.270;7.956;2023-03-31T02:25:07;21.00;;;5.15;;
64297;SDS011;50639;53.270;7.956;2023-03-31T02:27:38;21.13;;;4.72;;
64297;SDS011;50639;53.270;7.956;2023-03-31T02:30:06;25.02;;;5.03;;
64297;SDS011;50639;53.270;7.956;2023-03-31T02:32:37;20.98;;;5.07;;
64297;SDS011;50639;53.270;7.956;2023-03-31T02:35:05;21.05;;;5.47;;
64297;SDS011;50639;53.270;7.956;2023-03-31T02:37:34;22.30;;;5.43;;
64297;SDS011;50639;53.270;7.956;2023-03-31T02:40:04;18.55;;;4.65;;
64297;SDS011;50639;53.270;7.956;2023-03-31T02:42:35;24.05;;;5.22;;
64297;SDS011;50639;53.270;7.956;2023-03-31T02:45:06;19.13;;;5.45;;
64297;SDS011;50639;53.270;7.956;2023-03-31T02:47:52;20.25;;;5.00;;
64297;SDS011;50639;53.270;7.956;2023-03-31T02:50:19;16.60;;;4.53;;
64297;SDS011;50639;53.270;7.956;2023-03-31T03:01:20;16.42;;;5.22;;
64297;SDS011;50639;53.270;7.956;2023-03-31T03:07:12;19.02;;;5.93;;
64297;SDS011;50639;53.270;7.956;2023-03-31T03:09:48;18.35;;;5.40;;
64297;SDS011;50639;53.270;7.956;2023-03-31T03:17:39;19.63;;;5.63;;
64297;SDS011;50639;53.270;7.956;2023-03-31T03:20:08;16.60;;;5.40;;
64297;SDS011;50639;53.270;7.956;2023-03-31T03:22:35;17.67;;;5.43;;
64297;SDS011;50639;53.270;7.956;2023-03-31T03:25:02;18.60;;;4.60;;
64297;SDS011;50639;53.270;7.956;2023-03-31T03:29:54;23.88;;;5.75;;
64297;SDS011;50639;53.270;7.956;2023-03-31T03:32:20;21.65;;;5.45;;
64297;SDS011;50639;53.270;7.956;2023-03-31T03:34:46;18.33;;;4.95;;
64297;SDS011;50639;53.270;7.956;2023-03-31T03:37:12;23.13;;;5.30;;
64297;SDS011;50639;53.270;7.956;2023-03-31T03:39:38;21.13;;;5.22;;
64297;SDS011;50639;53.270;7.956;2023-03-31T03:42:03;22.92;;;5.00;;
64297;SDS011;50639;53.270;7.956;2023-03-31T03:44:29;21.58;;;5.65;;
64297;SDS011;50639;53.270;7.956;2023-03-31T03:46:54;16.42;;;4.65;;
64297;SDS011;50639;53.270;7.956;2023-03-31T03:49:20;15.00;;;4.15;;
64297;SDS011;50639;53.270;7.956;2023-03-31T03:51:45;16.08;;;4.43;;
64297;SDS011;50639;53.270;7.956;2023-03-31T03:54:11;22.30;;;5.00;;
64297;SDS011;50639;53.270;7.956;2023-03-31T03:56:36;21.08;;;5.22;;
64297;SDS011;50639;53.270;7.956;2023-03-31T03:59:02;19.70;;;4.53;;
64297;SDS011;50639;53.270;7.956;2023-03-31T04:01:28;18.92;;;5.07;;
64297;SDS011;50639;53.270;7.956;2023-03-31T04:03:54;23.60;;;4.95;;
64297;SDS011;50639;53.270;7.956;2023-03-31T04:06:19;18.92;;;5.65;;
64297;SDS011;50639;53.270;7.956;2023-03-31T04:08:46;15.85;;;4.68;;
64297;SDS011;50639;53.270;7.956;2023-03-31T04:11:13;16.70;;;4.90;;
64297;SDS011;50639;53.270;7.956;2023-03-31T04:13:41;20.30;;;5.82;;
64297;SDS011;50639;53.270;7.956;2023-03-31T04:16:07;18.45;;;5.65;;
64297;SDS011;50639;53.270;7.956;2023-03-31T04:18:33;24.02;;;4.95;;
64297;SDS011;50639;53.270;7.956;2023-03-31T04:23:33;15.10;;;4.63;;
64297;SDS011;50639;53.270;7.956;2023-03-31T04:26:03;21.80;;;6.15;;
64297;SDS011;50639;53.270;7.956;2023-03-31T04:28:33;14.88;;;3.95;;
64297;SDS011;50639;53.270;7.956;2023-03-31T04:31:02;21.73;;;5.40;;
64297;SDS011;50639;53.270;7.956;2023-03-31T04:33:31;18.23;;;5.13;;
64297;SDS011;50639;53.270;7.956;2023-03-31T04:36:03;19.70;;;5.45;;
64297;SDS011;50639;53.270;7.956;2023-03-31T04:38:43;17.23;;;4.40;;
64297;SDS011;50639;53.270;7.956;2023-03-31T04:41:23;21.20;;;6.43;;
64297;SDS011;50639;53.270;7.956;2023-03-31T04:43:53;15.18;;;4.30;;
64297;SDS011;50639;53.270;7.956;2023-03-31T04:46:19;18.55;;;4.47;;
64297;SDS011;50639;53.270;7.956;2023-03-31T04:48:45;15.10;;;4.25;;
64297;SDS011;50639;53.270;7.956;2023-03-31T04:51:11;20.65;;;4.70;;
64297;SDS011;50639;53.270;7.956;2023-03-31T04:53:39;16.30;;;4.72;;
64297;SDS011;50639;53.270;7.956;2023-03-31T04:56:05;16.45;;;4.40;;
64297;SDS011;50639;53.270;7.956;2023-03-31T04:58:32;19.30;;;4.53;;
64297;SDS011;50639;53.270;7.956;2023-03-31T05:00:57;17.70;;;5.13;;
64297;SDS011;50639;53.270;7.956;2023-03-31T05:03:23;16.35;;;4.80;;
64297;SDS011;50639;53.270;7.956;2023-03-31T05:05:49;15.77;;;4.72;;
64297;SDS011;50639;53.270;7.956;2023-03-31T05:08:14;14.18;;;4.15;;
64297;SDS011;50639;53.270;7.956;2023-03-31T05:10:40;19.25;;;4.68;;
64297;SDS011;50639;53.270;7.956;2023-03-31T05:13:07;19.08;;;4.43;;
64297;SDS011;50639;53.270;7.956;2023-03-31T05:15:36;19.63;;;4.65;;
64297;SDS011;50639;53.270;7.956;2023-03-31T05:18:02;22.83;;;4.63;;
64297;SDS011;50639;53.270;7.956;2023-03-31T05:20:28;13.57;;;3.83;;
64297;SDS011;50639;53.270;7.956;2023-03-31T05:22:53;12.35;;;4.13;;
64297;SDS011;50639;53.270;7.956;2023-03-31T05:25:19;26.85;;;13.98;;
64297;SDS011;50639;53.270;7.956;2023-03-31T05:27:45;16.52;;;4.88;;
64297;SDS011;50639;53.270;7.956;2023-03-31T05:30:11;19.50;;;4.93;;
64297;SDS011;50639;53.270;7.956;2023-03-31T05:32:38;15.93;;;4.53;;
64297;SDS011;50639;53.270;7.956;2023-03-31T05:35:04;18.13;;;4.65;;
64297;SDS011;50639;53.270;7.956;2023-03-31T05:37:29;18.08;;;4.93;;
64297;SDS011;50639;53.270;7.956;2023-03-31T05:39:55;17.20;;;4.80;;
64297;SDS011;50639;53.270;7.956;2023-03-31T05:42:22;13.73;;;4.32;;
64297;SDS011;50639;53.270;7.956;2023-03-31T05:44:47;21.25;;;8.88;;
64297;SDS011;50639;53.270;7.956;2023-03-31T05:47:13;15.75;;;5.03;;
64297;SDS011;50639;53.270;7.956;2023-03-31T05:49:39;15.70;;;5.18;;
64297;SDS011;50639;53.270;7.956;2023-03-31T05:52:05;16.85;;;4.28;;
64297;SDS011;50639;53.270;7.956;2023-03-31T05:54:31;10.23;;;3.50;;
64297;SDS011;50639;53.270;7.956;2023-03-31T05:56:57;13.38;;;4.43;;
64297;SDS011;50639;53.270;7.956;2023-03-31T05:59:23;12.15;;;4.10;;
64297;SDS011;50639;53.270;7.956;2023-03-31T06:01:48;12.45;;;4.28;;
64297;SDS011;50639;53.270;7.956;2023-03-31T06:04:14;11.98;;;3.95;;
64297;SDS011;50639;53.270;7.956;2023-03-31T06:06:39;14.13;;;4.22;;
64297;SDS011;50639;53.270;7.956;2023-03-31T06:09:07;15.25;;;4.55;;
64297;SDS011;50639;53.270;7.956;2023-03-31T06:11:33;12.35;;;4.60;;
64297;SDS011;50639;53.270;7.956;2023-03-31T06:13:58;14.32;;;4.38;;
64297;SDS011;50639;53.270;7.956;2023-03-31T06:16:23;15.93;;;4.45;;
64297;SDS011;50639;53.270;7.956;2023-03-31T06:18:49;14.90;;;4.80;;
64297;SDS011;50639;53.270;7.956;2023-03-31T06:21:16;13.35;;;4.40;;
64297;SDS011;50639;53.270;7.956;2023-03-31T06:23:43;9.25;;;3.85;;
64297;SDS011;50639;53.270;7.956;2023-03-31T06:26:10;14.73;;;4.03;;
64297;SDS011;50639;53.270;7.956;2023-03-31T06:31:03;12.10;;;4.53;;
64297;SDS011;50639;53.270;7.956;2023-03-31T06:33:34;14.50;;;4.60;;
64297;SDS011;50639;53.270;7.956;2023-03-31T06:35:59;13.25;;;4.07;;
64297;SDS011;50639;53.270;7.956;2023-03-31T06:38:28;9.25;;;3.78;;
64297;SDS011;50639;53.270;7.956;2023-03-31T06:40:54;10.00;;;4.03;;
64297;SDS011;50639;53.270;7.956;2023-03-31T06:43:19;12.45;;;4.10;;
64297;SDS011;50639;53.270;7.956;2023-03-31T06:45:45;7.78;;;3.45;;
64297;SDS011;50639;53.270;7.956;2023-03-31T06:48:11;7.37;;;3.57;;
64297;SDS011;50639;53.270;7.956;2023-03-31T06:50:37;11.77;;;3.35;;
64297;SDS011;50639;53.270;7.956;2023-03-31T06:53:03;8.85;;;3.42;;
64297;SDS011;50639;53.270;7.956;2023-03-31T06:55:29;7.72;;;3.75;;
64297;SDS011;50639;53.270;7.956;2023-03-31T06:57:55;9.18;;;3.53;;
64297;SDS011;50639;53.270;7.956;2023-03-31T07:00:20;9.88;;;3.92;;
64297;SDS011;50639;53.270;7.956;2023-03-31T07:02:46;10.38;;;3.97;;
64297;SDS011;50639;53.270;7.956;2023-03-31T07:05:11;7.95;;;3.30;;
64297;SDS011;50639;53.270;7.956;2023-03-31T07:07:37;10.52;;;4.15;;
64297;SDS011;50639;53.270;7.956;2023-03-31T07:10:02;8.13;;;3.28;;
64297;SDS011;50639;53.270;7.956;2023-03-31T07:12:28;11.55;;;3.90;;
64297;SDS011;50639;53.270;7.956;2023-03-31T07:14:57;8.80;;;3.28;;
64297;SDS011;50639;53.270;7.956;2023-03-31T07:17:23;9.88;;;3.55;;
64297;SDS011;50639;53.270;7.956;2023-03-31T07:19:49;8.57;;;3.47;;
64297;SDS011;50639;53.270;7.956;2023-03-31T07:22:15;8.65;;;3.58;;
64297;SDS011;50639;53.270;7.956;2023-03-31T07:24:40;11.05;;;3.65;;
64297;SDS011;50639;53.270;7.956;2023-03-31T07:27:06;8.90;;;3.90;;
64297;SDS011;50639;53.270;7.956;2023-03-31T07:29:31;10.93;;;3.60;;
64297;SDS011;50639;53.270;7.956;2023-03-31T07:31:57;8.73;;;3.58;;
64297;SDS011;50639;53.270;7.956;2023-03-31T07:34:22;11.00;;;3.67;;
64297;SDS011;50639;53.270;7.956;2023-03-31T07:36:48;12.55;;;4.35;;
64297;SDS011;50639;53.270;7.956;2023-03-31T07:39:13;10.77;;;4.57;;
64297;SDS011;50639;53.270;7.956;2023-03-31T07:41:38;10.07;;;4.10;;
64297;SDS011;50639;53.270;7.956;2023-03-31T07:44:04;9.77;;;5.10;;
64297;SDS011;50639;53.270;7.956;2023-03-31T07:46:30;10.27;;;4.57;;
64297;SDS011;50639;53.270;7.956;2023-03-31T07:48:56;13.10;;;5.60;;
64297;SDS011;50639;53.270;7.956;2023-03-31T07:51:23;10.90;;;5.03;;
64297;SDS011;50639;53.270;7.956;2023-03-31T07:56:20;12.30;;;6.18;;
64297;SDS011;50639;53.270;7.956;2023-03-31T07:58:47;14.18;;;6.10;;
64297;SDS011;50639;53.270;7.956;2023-03-31T08:01:16;15.13;;;6.28;;
64297;SDS011;50639;53.270;7.956;2023-03-31T08:03:44;15.07;;;5.78;;
64297;SDS011;50639;53.270;7.956;2023-03-31T08:06:11;11.68;;;6.45;;
64297;SDS011;50639;53.270;7.956;2023-03-31T08:08:41;12.07;;;6.45;;
64297;SDS011;50639;53.270;7.956;2023-03-31T08:11:07;13.35;;;6.00;;
64297;SDS011;50639;53.270;7.956;2023-03-31T08:13:34;14.55;;;7.65;;
64297;SDS011;50639;53.270;7.956;2023-03-31T08:16:00;20.23;;;11.23;;
64297;SDS011;50639;53.270;7.956;2023-03-31T08:18:25;15.25;;;9.43;;
64297;SDS011;50639;53.270;7.956;2023-03-31T08:20:51;15.50;;;8.98;;
64297;SDS011;50639;53.270;7.956;2023-03-31T08:23:16;12.95;;;7.30;;
64297;SDS011;50639;53.270;7.956;2023-03-31T08:25:42;11.93;;;7.88;;
64297;SDS011;50639;53.270;7.956;2023-03-31T08:28:07;13.10;;;7.18;;
64297;SDS011;50639;53.270;7.956;2023-03-31T08:30:36;13.38;;;7.28;;
64297;SDS011;50639;53.270;7.956;2023-03-31T08:33:03;12.80;;;7.63;;
64297;SDS011;50639;53.270;7.956;2023-03-31T08:35:28;12.45;;;7.75;;
64297;SDS011;50639;53.270;7.956;2023-03-31T08:37:54;11.07;;;6.70;;
64297;SDS011;50639;53.270;7.956;2023-03-31T08:40:21;14.30;;;8.35;;
64297;SDS011;50639;53.270;7.956;2023-03-31T08:42:54;13.27;;;8.13;;
64297;SDS011;50639;53.270;7.956;2023-03-31T08:45:23;15.25;;;8.73;;
64297;SDS011;50639;53.270;7.956;2023-03-31T08:47:56;19.90;;;10.85;;
64297;SDS011;50639;53.270;7.956;2023-03-31T08:50:34;15.60;;;9.15;;
64297;SDS011;50639;53.270;7.956;2023-03-31T08:53:05;14.57;;;8.77;;
64297;SDS011;50639;53.270;7.956;2023-03-31T08:55:51;16.00;;;9.45;;
64297;SDS011;50639;53.270;7.956;2023-03-31T08:58:29;14.02;;;8.15;;
64297;SDS011;50639;53.270;7.956;2023-03-31T09:06:15;16.13;;;9.63;;
64297;SDS011;50639;53.270;7.956;2023-03-31T09:11:13;14.45;;;8.90;;
64297;SDS011;50639;53.270;7.956;2023-03-31T09:19:31;14.48;;;8.10;;
64297;SDS011;50639;53.270;7.956;2023-03-31T09:22:01;17.02;;;8.55;;
64297;SDS011;50639;53.270;7.956;2023-03-31T09:24:31;16.77;;;7.68;;
64297;SDS011;50639;53.270;7.956;2023-03-31T09:27:04;10.80;;;7.35;;
64297;SDS011;50639;53.270;7.956;2023-03-31T09:29:51;10.82;;;6.82;;
64297;SDS011;50639;53.270;7.956;2023-03-31T09:32:22;11.90;;;7.50;;
64297;SDS011;50639;53.270;7.956;2023-03-31T09:34:55;9.80;;;6.32;;
64297;SDS011;50639;53.270;7.956;2023-03-31T09:37:26;11.35;;;6.05;;
64297;SDS011;50639;53.270;7.956;2023-03-31T09:39:55;14.95;;;8.02;;
64297;SDS011;50639;53.270;7.956;2023-03-31T09:42:23;11.13;;;6.75;;
64297;SDS011;50639;53.270;7.956;2023-03-31T09:44:49;11.45;;;6.10;;
64297;SDS011;50639;53.270;7.956;2023-03-31T09:47:26;12.30;;;6.70;;
64297;SDS011;50639;53.270;7.956;2023-03-31T09:49:56;11.38;;;6.47;;
64297;SDS011;50639;53.270;7.956;2023-03-31T09:52:26;16.23;;;7.38;;
64297;SDS011;50639;53.270;7.956;2023-03-31T09:54:53;12.27;;;6.15;;
64297;SDS011;50639;53.270;7.956;2023-03-31T09:57:28;12.32;;;6.93;;
64297;SDS011;50639;53.270;7.956;2023-03-31T10:02:41;12.63;;;6.88;;
64297;SDS011;50639;53.270;7.956;2023-03-31T10:11:23;14.13;;;7.93;;
64297;SDS011;50639;53.270;7.956;2023-03-31T10:13:35;14.23;;;6.95;;
64297;SDS011;50639;53.270;7.956;2023-03-31T10:16:20;13.95;;;6.80;;
64297;SDS011;50639;53.270;7.956;2023-03-31T10:18:47;12.45;;;6.00;;
64297;SDS011;50639;53.270;7.956;2023-03-31T10:21:27;13.63;;;7.30;;
64297;SDS011;50639;53.270;7.956;2023-03-31T10:24:02;13.43;;;6.03;;
64297;SDS011;50639;53.270;7.956;2023-03-31T10:26:33;12.07;;;5.75;;
64297;SDS011;50639;53.270;7.956;2023-03-31T10:28:58;14.13;;;6.38;;
64297;SDS011;50639;53.270;7.956;2023-03-31T10:31:25;14.77;;;6.40;;
64297;SDS011;50639;53.270;7.956;2023-03-31T10:33:58;12.77;;;6.35;;
64297;SDS011;50639;53.270;7.956;2023-03-31T10:36:27;12.80;;;5.55;;
64297;SDS011;50639;53.270;7.956;2023-03-31T10:38:54;11.38;;;5.35;;
64297;SDS011;50639;53.270;7.956;2023-03-31T10:41:25;11.10;;;5.40;;
64297;SDS011;50639;53.270;7.956;2023-03-31T10:43:53;10.98;;;6.20;;
64297;SDS011;50639;53.270;7.956;2023-03-31T10:46:20;12.50;;;5.43;;
64297;SDS011;50639;53.270;7.956;2023-03-31T10:49:13;11.52;;;5.45;;
64297;SDS011;50639;53.270;7.956;2023-03-31T10:51:57;15.87;;;6.60;;
64297;SDS011;50639;53.270;7.956;2023-03-31T10:54:24;12.80;;;6.13;;
64297;SDS011;50639;53.270;7.956;2023-03-31T10:56:50;14.75;;;7.32;;
64297;SDS011;50639;53.270;7.956;2023-03-31T11:11:14;11.77;;;5.80;;
64297;SDS011;50639;53.270;7.956;2023-03-31T11:13:49;13.10;;;5.15;;
64297;SDS011;50639;53.270;7.956;2023-03-31T11:16:27;9.90;;;4.50;;
64297;SDS011;50639;53.270;7.956;2023-03-31T11:19:07;9.88;;;4.97;;
64297;SDS011;50639;53.270;7.956;2023-03-31T11:30:27;11.45;;;4.15;;
64297;SDS011;50639;53.270;7.956;2023-03-31T11:35:42;12.52;;;4.28;;
64297;SDS011;50639;53.270;7.956;2023-03-31T11:48:53;7.45;;;3.20;;
64297;SDS011;50639;53.270;7.956;2023-03-31T11:51:27;7.30;;;3.05;;
64297;SDS011;50639;53.270;7.956;2023-03-31T11:54:07;5.93;;;2.83;;
64297;SDS011;50639;53.270;7.956;2023-03-31T11:56:40;7.90;;;2.97;;
64297;SDS011;50639;53.270;7.956;2023-03-31T11:59:06;5.45;;;2.60;;
64297;SDS011;50639;53.270;7.956;2023-03-31T12:02:00;7.82;;;3.08;;
64297;SDS011;50639;53.270;7.956;2023-03-31T12:04:41;6.75;;;2.65;;
64297;SDS011;50639;53.270;7.956;2023-03-31T12:07:23;6.68;;;3.05;;
64297;SDS011;50639;53.270;7.956;2023-03-31T12:12:23;7.40;;;2.70;;
64297;SDS011;50639;53.270;7.956;2023-03-31T12:15:40;6.20;;;3.05;;
64297;SDS011;50639;53.270;7.956;2023-03-31T12:17:46;8.68;;;2.70;;
64297;SDS011;50639;53.270;7.956;2023-03-31T12:20:24;5.13;;;2.92;;
64297;SDS011;50639;53.270;7.956;2023-03-31T12:22:54;5.95;;;2.65;;
64297;SDS011;50639;53.270;7.956;2023-03-31T12:25:23;5.80;;;2.80;;
64297;SDS011;50639;53.270;7.956;2023-03-31T12:27:50;6.93;;;2.60;;
64297;SDS011;50639;53.270;7.956;2023-03-31T12:30:34;6.93;;;2.80;;
64297;SDS011;50639;53.270;7.956;2023-03-31T12:33:25;7.60;;;2.70;;
64297;SDS011;50639;53.270;7.956;2023-03-31T12:41:22;6.00;;;2.72;;
64297;SDS011;50639;53.270;7.956;2023-03-31T12:51:55;6.80;;;2.47;;
64297;SDS011;50639;53.270;7.956;2023-03-31T12:59:31;5.22;;;2.17;;
64297;SDS011;50639;53.270;7.956;2023-03-31T13:04:36;6.28;;;2.40;;
64297;SDS011;50639;53.270;7.956;2023-03-31T13:07:02;5.03;;;2.17;;
64297;SDS011;50639;53.270;7.956;2023-03-31T13:11:55;6.45;;;2.67;;
64297;SDS011;50639;53.270;7.956;2023-03-31T13:14:26;7.75;;;2.67;;
64297;SDS011;50639;53.270;7.956;2023-03-31T13:19:47;5.97;;;2.53;;
64297;SDS011;50639;53.270;7.956;2023-03-31T13:22:32;6.95;;;2.65;;
64297;SDS011;50639;53.270;7.956;2023-03-31T13:27:52;6.72;;;2.70;;
64297;SDS011;50639;53.270;7.956;2023-03-31T13:35:40;8.02;;;2.80;;
64297;SDS011;50639;53.270;7.956;2023-03-31T13:38:14;5.50;;;2.60;;
64297;SDS011;50639;53.270;7.956;2023-03-31T13:40:55;6.53;;;3.00;;
64297;SDS011;50639;53.270;7.956;2023-03-31T13:43:44;6.63;;;2.97;;
64297;SDS011;50639;53.270;7.956;2023-03-31T13:59:43;7.68;;;2.88;;
64297;SDS011;50639;53.270;7.956;2023-03-31T14:08:09;6.45;;;2.65;;
64297;SDS011;50639;53.270;7.956;2023-03-31T14:10:37;8.40;;;2.58;;
64297;SDS011;50639;53.270;7.956;2023-03-31T14:13:05;5.40;;;2.40;;
64297;SDS011;50639;53.270;7.956;2023-03-31T14:15:31;13.48;;;6.35;;
64297;SDS011;50639;53.270;7.956;2023-03-31T14:17:58;7.30;;;2.87;;
64297;SDS011;50639;53.270;7.956;2023-03-31T14:20:40;9.00;;;3.00;;
64297;SDS011;50639;53.270;7.956;2023-03-31T14:23:25;10.73;;;2.97;;
64297;SDS011;50639;53.270;7.956;2023-03-31T14:26:16;7.70;;;3.03;;
64297;SDS011;50639;53.270;7.956;2023-03-31T14:28:52;5.82;;;2.70;;
64297;SDS011;50639;53.270;7.956;2023-03-31T14:31:26;9.73;;;2.90;;
64297;SDS011;50639;53.270;7.956;2023-03-31T14:37:13;9.70;;;3.03;;
64297;SDS011;50639;53.270;7.956;2023-03-31T14:39:45;7.90;;;2.80;;
64297;SDS011;50639;53.270;7.956;2023-03-31T14:42:13;8.98;;;3.20;;
64297;SDS011;50639;53.270;7.956;2023-03-31T14:44:41;8.48;;;3.22;;
64297;SDS011;50639;53.270;7.956;2023-03-31T14:47:42;9.27;;;2.88;;
64297;SDS011;50639;53.270;7.956;2023-03-31T14:52:50;11.02;;;3.47;;
64297;SDS011;50639;53.270;7.956;2023-03-31T14:55:16;10.70;;;3.50;;
64297;SDS011;50639;53.270;7.956;2023-03-31T14:57:46;9.63;;;3.10;;
64297;SDS011;50639;53.270;7.956;2023-03-31T15:00:23;16.05;;;8.57;;
64297;SDS011;50639;53.270;7.956;2023-03-31T15:02:51;14.23;;;3.55;;
64297;SDS011;50639;53.270;7.956;2023-03-31T15:05:24;9.23;;;3.35;;
64297;SDS011;50639;53.270;7.956;2023-03-31T15:08:35;11.30;;;3.63;;
64297;SDS011;50639;53.270;7.956;2023-03-31T15:10:44;14.07;;;3.83;;
64297;SDS011;50639;53.270;7.956;2023-03-31T15:13:25;10.27;;;3.50;;
64297;SDS011;50639;53.270;7.956;2023-03-31T15:15:57;11.80;;;4.85;;
64297;SDS011;50639;53.270;7.956;2023-03-31T15:18:24;9.60;;;3.00;;
64297;SDS011;50639;53.270;7.956;2023-03-31T15:20:50;13.25;;;6.00;;
64297;SDS011;50639;53.270;7.956;2023-03-31T15:25:48;11.30;;;3.58;;
64297;SDS011;50639;53.270;7.956;2023-03-31T15:28:22;14.85;;;3.92;;
64297;SDS011;50639;53.270;7.956;2023-03-31T15:30:52;11.65;;;3.70;;
64297;SDS011;50639;53.270;7.956;2023-03-31T15:33:21;9.02;;;3.42;;
64297;SDS011;50639;53.270;7.956;2023-03-31T15:35:55;9.75;;;3.60;;
64297;SDS011;50639;53.270;7.956;2023-03-31T15:38:21;10.38;;;3.80;;
64297;SDS011;50639;53.270;7.956;2023-03-31T15:40:54;31.85;;;20.90;;
64297;SDS011;50639;53.270;7.956;2023-03-31T15:43:28;47.33;;;28.88;;
64297;SDS011;50639;53.270;7.956;2023-03-31T15:45:56;35.13;;;21.35;;
64297;SDS011;50639;53.270;7.956;2023-03-31T15:48:32;21.08;;;11.00;;
64297;SDS011;50639;53.270;7.956;2023-03-31T15:51:06;16.02;;;9.50;;
64297;SDS011;50639;53.270;7.956;2023-03-31T15:53:47;12.48;;;5.00;;
64297;SDS011;50639;53.270;7.956;2023-03-31T15:58:56;15.70;;;7.72;;
64297;SDS011;50639;53.270;7.956;2023-03-31T16:01:25;12.70;;;5.15;;
64297;SDS011;50639;53.270;7.956;2023-03-31T16:03:54;28.63;;;14.95;;
64297;SDS011;50639;53.270;7.956;2023-03-31T16:09:08;13.07;;;4.80;;
64297;SDS011;50639;53.270;7.956;2023-03-31T16:14:22;10.27;;;3.97;;
64297;SDS011;50639;53.270;7.956;2023-03-31T16:17:03;14.23;;;4.50;;
64297;SDS011;50639;53.270;7.956;2023-03-31T16:19:39;9.18;;;3.50;;
64297;SDS011;50639;53.270;7.956;2023-03-31T16:22:11;9.90;;;3.83;;
64297;SDS011;50639;53.270;7.956;2023-03-31T16:24:40;12.88;;;4.47;;
64297;SDS011;50639;53.270;7.956;2023-03-31T16:27:07;9.43;;;3.90;;
64297;SDS011;50639;53.270;7.956;2023-03-31T16:29:33;10.82;;;4.53;;
64297;SDS011;50639;53.270;7.956;2023-03-31T16:32:19;12.38;;;4.60;;
64297;SDS011;50639;53.270;7.956;2023-03-31T16:37:16;25.63;;;18.85;;
64297;SDS011;50639;53.270;7.956;2023-03-31T16:39:41;9.88;;;3.20;;
64297;SDS011;50639;53.270;7.956;2023-03-31T16:42:07;5.80;;;2.22;;
64297;SDS011;50639;53.270;7.956;2023-03-31T16:44:32;4.07;;;1.90;;
64297;SDS011;50639;53.270;7.956;2023-03-31T16:46:58;6.20;;;1.90;;
64297;SDS011;50639;53.270;7.956;2023-03-31T16:49:23;2.95;;;1.60;;
64297;SDS011;50639;53.270;7.956;2023-03-31T16:51:49;6.53;;;1.70;;
64297;SDS011;50639;53.270;7.956;2023-03-31T16:54:14;4.93;;;1.80;;
64297;SDS011;50639;53.270;7.956;2023-03-31T16:56:40;6.25;;;2.00;;
64297;SDS011;50639;53.270;7.956;2023-03-31T16:59:05;4.75;;;2.20;;
64297;SDS011;50639;53.270;7.956;2023-03-31T17:03:59;24.30;;;10.40;;
64297;SDS011;50639;53.270;7.956;2023-03-31T17:06:24;10.27;;;5.78;;
64297;SDS011;50639;53.270;7.956;2023-03-31T17:08:50;3.92;;;1.83;;
64297;SDS011;50639;53.270;7.956;2023-03-31T17:11:15;5.20;;;2.20;;
64297;SDS011;50639;53.270;7.956;2023-03-31T17:13:41;3.17;;;2.00;;
64297;SDS011;50639;53.270;7.956;2023-03-31T17:16:07;5.05;;;2.03;;
64297;SDS011;50639;53.270;7.956;2023-03-31T17:18:33;7.43;;;3.35;;
64297;SDS011;50639;53.270;7.956;2023-03-31T17:21:06;5.63;;;2.60;;
64297;SDS011;50639;53.270;7.956;2023-03-31T17:23:35;5.70;;;2.00;;
64297;SDS011;50639;53.270;7.956;2023-03-31T17:26:02;3.85;;;1.65;;
64297;SDS011;50639;53.270;7.956;2023-03-31T17:28:28;3.00;;;1.65;;
64297;SDS011;50639;53.270;7.956;2023-03-31T17:30:55;4.05;;;1.63;;
64297;SDS011;50639;53.270;7.956;2023-03-31T17:33:21;5.78;;;2.00;;
64297;SDS011;50639;53.270;7.956;2023-03-31T17:35:47;6.88;;;2.60;;
64297;SDS011;50639;53.270;7.956;2023-03-31T17:38:13;8.68;;;2.30;;
64297;SDS011;50639;53.270;7.956;2023-03-31T17:40:38;5.65;;;2.25;;
64297;SDS011;50639;53.270;7.956;2023-03-31T17:43:05;5.03;;;1.95;;
64297;SDS011;50639;53.270;7.956;2023-03-31T17:45:31;6.72;;;2.83;;
64297;SDS011;50639;53.270;7.956;2023-03-31T17:47:59;4.40;;;2.00;;
64297;SDS011;50639;53.270;7.956;2023-03-31T17:50:25;6.63;;;1.90;;
64297;SDS011;50639;53.270;7.956;2023-03-31T17:52:51;4.07;;;1.90;;
64297;SDS011;50639;53.270;7.956;2023-03-31T17:55:17;4.88;;;1.90;;
64297;SDS011;50639;53.270;7.956;2023-03-31T17:57:43;8.90;;;2.55;;
64297;SDS011;50639;53.270;7.956;2023-03-31T18:00:08;3.25;;;2.08;;
64297;SDS011;50639;53.270;7.956;2023-03-31T18:02:44;5.70;;;2.85;;